Time,TemperatureF,DewpointF,PressureIn,WindDirection,WindDirectionDegrees,WindSpeedMPH,WindSpeedGustMPH,Humidity,HourlyPrecipIn,Conditions,Clouds,dailyrainin,SoftwareType,DateUTC
2013-05-05 00:05:00,51.5,50.1,30.08,NNE,22,2.0,3.0,95,0.00,,OVC030,0.00,VWS V14.01,2013-05-05 04:05:00,
2013-05-05 00:10:00,51.5,50.4,30.08,NE,36,3.0,4.0,96,0.01,,OVC030,0.00,VWS V14.01,2013-05-05 04:10:00,
2013-05-05 00:15:00,51.4,50.3,30.08,NE,52,3.0,3.0,96,0.01,,OVC030,0.00,VWS V14.01,2013-05-05 04:15:00,
2013-05-05 00:20:00,51.4,50.3,30.08,ENE,58,4.0,5.0,96,0.01,,RA,0.00,VWS V14.01,2013-05-05 04:20:00,
2013-05-05 00:25:00,51.4,50.3,30.08,NNE,20,4.0,5.0,96,0.01,,RA,0.00,VWS V14.01,2013-05-05 04:25:00,
2013-05-05 00:30:00,51.4,50.3,30.08,North,3,3.0,4.0,96,0.01,,RA,0.00,VWS V14.01,2013-05-05 04:30:00,
2013-05-05 00:35:00,51.4,50.3,30.08,NNW,342,3.0,4.0,96,0.01,,RA,0.00,VWS V14.01,2013-05-05 04:35:00,
2013-05-05 00:40:00,51.4,50.3,30.08,NW,324,3.0,7.0,96,0.01,,OVC026,0.00,VWS V14.01,2013-05-05 04:40:00,
2013-05-05 00:45:00,51.4,50.3,30.08,NE,50,6.0,9.0,96,0.01,,OVC026,0.00,VWS V14.01,2013-05-05 04:45:00,
2013-05-05 00:50:00,51.4,50.3,30.07,ENE,61,8.0,8.0,96,0.00,,OVC026,0.00,VWS V14.01,2013-05-05 04:50:00,
2013-05-05 00:55:00,51.3,50.2,30.07,ENE,70,4.0,6.0,96,0.01,,OVC026,0.01,VWS V14.01,2013-05-05 04:55:00,
2013-05-05 01:00:00,51.3,50.5,30.07,NNE,27,3.0,7.0,97,0.02,,,0.01,VWS V14.01,2013-05-05 05:00:00,
2013-05-05 01:05:00,51.3,50.5,30.06,NE,50,2.0,7.0,97,0.01,,,0.01,VWS V14.01,2013-05-05 05:05:00,
2013-05-05 01:10:00,51.3,50.5,30.05,NNE,30,4.0,16.0,97,0.01,,,0.01,VWS V14.01,2013-05-05 05:10:00,
2013-05-05 01:15:00,51.3,50.5,30.05,NNW,345,3.0,13.0,97,0.01,,,0.01,VWS V14.01,2013-05-05 05:15:00,
2013-05-05 01:20:00,51.3,50.5,30.04,NE,52,4.0,5.0,97,0.01,,-RA,0.01,VWS V14.01,2013-05-05 05:20:00,
2013-05-05 01:25:00,51.3,50.5,30.04,NE,50,2.0,8.0,97,0.01,,-RA,0.01,VWS V14.01,2013-05-05 05:25:00,
2013-05-05 01:30:00,51.3,50.2,30.05,ESE,120,4.0,16.0,96,0.01,,-RA,0.01,VWS V14.01,2013-05-05 05:30:00,
2013-05-05 01:35:00,51.4,50.3,30.04,NW,321,3.0,4.0,96,0.02,,-RA,0.02,VWS V14.01,2013-05-05 05:35:00,
2013-05-05 01:40:00,51.4,50.3,30.04,ENE,64,6.0,6.0,96,0.03,,-RA,0.03,VWS V14.01,2013-05-05 05:40:00,
2013-05-05 01:45:00,51.4,50.3,30.04,NE,41,7.0,7.0,96,0.03,,-RA,0.03,VWS V14.01,2013-05-05 05:45:00,
2013-05-05 01:50:00,51.4,50.3,30.03,NE,36,1.0,6.0,96,0.03,,-RA,0.03,VWS V14.01,2013-05-05 05:50:00,
2013-05-05 01:55:00,51.4,50.3,30.03,North,5,4.0,13.0,96,0.03,,-RA,0.04,VWS V14.01,2013-05-05 05:55:00,
2013-05-05 02:00:00,51.4,50.3,30.03,NE,50,4.0,7.0,96,0.03,,-RA,0.04,VWS V14.01,2013-05-05 06:00:00,
2013-05-05 02:05:00,51.4,50.3,30.03,NE,52,7.0,8.0,96,0.03,,-RA,0.04,VWS V14.01,2013-05-05 06:05:00,
2013-05-05 02:10:00,51.3,49.9,30.02,NE,47,3.0,4.0,95,0.03,,-RA,0.04,VWS V14.01,2013-05-05 06:10:00,
2013-05-05 02:15:00,51.3,49.9,30.02,NE,46,7.0,13.0,95,0.03,,-RA,0.04,VWS V14.01,2013-05-05 06:15:00,
2013-05-05 02:20:00,51.3,49.9,30.02,NE,56,5.0,8.0,95,0.03,,OVC014,0.04,VWS V14.01,2013-05-05 06:20:00,
2013-05-05 02:25:00,51.2,49.8,30.02,East,83,2.0,2.0,95,0.03,,OVC014,0.04,VWS V14.01,2013-05-05 06:25:00,
2013-05-05 02:30:00,51.2,49.8,30.02,ENE,72,2.0,6.0,95,0.04,,OVC014,0.05,VWS V14.01,2013-05-05 06:30:00,
2013-05-05 02:35:00,51.2,49.8,30.02,NNE,19,1.0,7.0,95,0.03,,OVC014,0.05,VWS V14.01,2013-05-05 06:35:00,
2013-05-05 02:40:00,51.2,49.5,30.02,North,356,6.0,9.0,94,0.02,,OVC018,0.05,VWS V14.01,2013-05-05 06:40:00,
2013-05-05 02:45:00,51.1,49.7,30.01,North,359,0.0,5.0,95,0.02,,OVC018,0.05,VWS V14.01,2013-05-05 06:45:00,
2013-05-05 02:50:00,51.0,49.6,30.02,North,9,3.0,5.0,95,0.02,,OVC018,0.05,VWS V14.01,2013-05-05 06:50:00,
2013-05-05 02:55:00,51.0,49.6,30.01,East,85,3.0,4.0,95,0.02,,OVC018,0.06,VWS V14.01,2013-05-05 06:55:00,
2013-05-05 03:00:00,51.0,49.3,30.02,East,100,1.0,6.0,94,0.02,,-RA,0.06,VWS V14.01,2013-05-05 07:00:00,
2013-05-05 03:05:00,50.9,49.2,30.01,NNE,13,3.0,3.0,94,0.02,,-RA,0.06,VWS V14.01,2013-05-05 07:05:00,
2013-05-05 03:10:00,50.9,49.2,30.01,NNE,32,2.0,6.0,94,0.02,,-RA,0.06,VWS V14.01,2013-05-05 07:10:00,
2013-05-05 03:15:00,50.8,49.4,30.01,NE,38,6.0,6.0,95,0.02,,-RA,0.06,VWS V14.01,2013-05-05 07:15:00,
2013-05-05 03:20:00,50.7,49.3,30.01,NE,46,1.0,3.0,95,0.02,,RA,0.06,VWS V14.01,2013-05-05 07:20:00,
2013-05-05 03:25:00,50.7,49.3,30.00,NNW,329,2.0,5.0,95,0.02,,RA,0.06,VWS V14.01,2013-05-05 07:25:00,
2013-05-05 03:30:00,50.6,49.2,30.00,North,359,0.0,8.0,95,0.02,,RA,0.07,VWS V14.01,2013-05-05 07:30:00,
2013-05-05 03:35:00,50.5,49.1,30.00,NE,38,6.0,6.0,95,0.03,,RA,0.08,VWS V14.01,2013-05-05 07:35:00,
2013-05-05 03:40:00,50.4,49.0,30.00,North,352,5.0,5.0,95,0.04,,RA,0.09,VWS V14.01,2013-05-05 07:40:00,
2013-05-05 03:45:00,50.3,48.9,30.00,NW,319,3.0,5.0,95,0.05,,RA,0.10,VWS V14.01,2013-05-05 07:45:00,
2013-05-05 03:50:00,50.2,48.8,29.99,ENE,68,5.0,12.0,95,0.06,,RA,0.11,VWS V14.01,2013-05-05 07:50:00,
2013-05-05 03:55:00,50.1,48.7,29.99,ENE,62,3.0,9.0,95,0.07,,RA,0.13,VWS V14.01,2013-05-05 07:55:00,
2013-05-05 04:00:00,49.9,48.8,29.99,East,92,3.0,6.0,96,0.07,,RA,0.14,VWS V14.01,2013-05-05 08:00:00,
2013-05-05 04:05:00,49.9,48.8,30.00,NNE,32,3.0,5.0,96,0.09,,RA,0.15,VWS V14.01,2013-05-05 08:05:00,
2013-05-05 04:10:00,49.7,48.3,30.00,East,82,8.0,8.0,95,0.09,,RA,0.15,VWS V14.01,2013-05-05 08:10:00,
2013-05-05 04:15:00,49.6,48.0,30.00,NE,45,10.0,13.0,94,0.10,,RA,0.16,VWS V14.01,2013-05-05 08:15:00,
2013-05-05 04:20:00,49.4,48.0,30.00,NE,53,16.0,16.0,95,0.11,,RA,0.17,VWS V14.01,2013-05-05 08:20:00,
2013-05-05 04:25:00,49.3,47.9,29.99,NNE,12,2.0,8.0,95,0.12,,RA,0.18,VWS V14.01,2013-05-05 08:25:00,
2013-05-05 04:30:00,49.1,47.7,30.00,ENE,65,5.0,8.0,95,0.12,,RA,0.19,VWS V14.01,2013-05-05 08:30:00,
2013-05-05 04:35:00,49.0,47.6,29.99,NE,44,3.0,7.0,95,0.12,,RA,0.20,VWS V14.01,2013-05-05 08:35:00,
2013-05-05 04:40:00,48.8,47.4,29.99,NNE,23,2.0,8.0,95,0.12,,RA,0.21,VWS V14.01,2013-05-05 08:40:00,
2013-05-05 04:45:00,48.6,47.2,29.99,ENE,58,11.0,14.0,95,0.11,,RA,0.21,VWS V14.01,2013-05-05 08:45:00,
2013-05-05 04:50:00,48.4,47.0,29.99,NE,56,8.0,12.0,95,0.11,,RA,0.22,VWS V14.01,2013-05-05 08:50:00,
2013-05-05 04:55:00,48.2,46.8,29.98,NNE,27,4.0,9.0,95,0.10,,RA,0.22,VWS V14.01,2013-05-05 08:55:00,
2013-05-05 05:00:00,48.0,46.6,29.98,NNE,32,13.0,13.0,95,0.10,,RA,0.23,VWS V14.01,2013-05-05 09:00:00,
2013-05-05 05:05:00,47.9,46.5,29.99,NE,39,4.0,7.0,95,0.09,,RA,0.24,VWS V14.01,2013-05-05 09:05:00,
2013-05-05 05:10:00,47.7,46.3,29.99,NE,50,5.0,8.0,95,0.10,,RA,0.25,VWS V14.01,2013-05-05 09:10:00,
2013-05-05 05:15:00,47.7,46.3,30.00,NE,43,6.0,9.0,95,0.10,,RA,0.26,VWS V14.01,2013-05-05 09:15:00,
2013-05-05 05:20:00,47.6,46.2,30.00,NNW,333,2.0,5.0,95,0.09,,RA,0.26,VWS V14.01,2013-05-05 09:20:00,
2013-05-05 05:25:00,47.5,46.1,30.00,NNE,16,1.0,5.0,95,0.09,,RA,0.27,VWS V14.01,2013-05-05 09:25:00,
2013-05-05 05:30:00,47.4,46.0,30.00,NNW,340,2.0,2.0,95,0.08,,RA,0.27,VWS V14.01,2013-05-05 09:30:00,
2013-05-05 05:35:00,47.4,46.0,30.01,NNE,30,1.0,3.0,95,0.08,,RA,0.28,VWS V14.01,2013-05-05 09:35:00,
2013-05-05 05:40:00,47.3,45.9,30.01,NNE,27,0.0,2.0,95,0.07,,RA,0.28,VWS V14.01,2013-05-05 09:40:00,
2013-05-05 05:45:00,47.3,45.9,30.01,NNW,340,0.0,0.0,95,0.07,,RA,0.28,VWS V14.01,2013-05-05 09:45:00,
2013-05-05 05:50:00,47.3,45.9,30.01,NW,322,0.0,1.0,95,0.07,,RA,0.29,VWS V14.01,2013-05-05 09:50:00,
2013-05-05 05:55:00,47.3,46.2,30.01,North,352,1.0,3.0,96,0.09,,RA,0.31,VWS V14.01,2013-05-05 09:55:00,
2013-05-05 06:00:00,47.2,46.1,30.01,North,353,0.0,2.0,96,0.08,, +RA,0.31,VWS V14.01,2013-05-05 10:00:00,
2013-05-05 06:05:00,47.1,46.0,30.00,NW,314,0.0,2.0,96,0.07,, +RA,0.31,VWS V14.01,2013-05-05 10:05:00,
2013-05-05 06:10:00,47.0,45.9,30.00,NW,318,0.0,1.0,96,0.08,, +RA,0.33,VWS V14.01,2013-05-05 10:10:00,
2013-05-05 06:15:00,46.9,45.8,30.01,NW,324,0.0,1.0,96,0.08,, +RA,0.34,VWS V14.01,2013-05-05 10:15:00,
2013-05-05 06:20:00,46.8,45.7,30.01,NNW,338,1.0,2.0,96,0.10,, +RA,0.36,VWS V14.01,2013-05-05 10:20:00,
2013-05-05 06:25:00,46.8,45.7,30.01,North,8,0.0,0.0,96,0.10,, +RA,0.37,VWS V14.01,2013-05-05 10:25:00,
2013-05-05 06:30:00,46.8,45.7,30.00,North,1,4.0,4.0,96,0.12,, +RA,0.39,VWS V14.01,2013-05-05 10:30:00,
2013-05-05 06:35:00,46.7,45.3,30.00,NE,50,6.0,6.0,95,0.12,, +RA,0.40,VWS V14.01,2013-05-05 10:35:00,
2013-05-05 06:40:00,46.6,45.2,29.99,WNW,293,2.0,6.0,95,0.12,, +RA,0.40,VWS V14.01,2013-05-05 10:40:00,
2013-05-05 06:45:00,46.5,44.9,29.99,North,356,5.0,7.0,94,0.13,, +RA,0.41,VWS V14.01,2013-05-05 10:45:00,
2013-05-05 06:50:00,46.4,44.8,29.99,ENE,68,2.0,6.0,94,0.14,, +RA,0.42,VWS V14.01,2013-05-05 10:50:00,
2013-05-05 06:55:00,46.4,44.8,29.99,North,9,3.0,7.0,94,0.12,, +RA,0.43,VWS V14.01,2013-05-05 10:55:00,
2013-05-05 07:00:00,46.3,44.7,29.99,NE,50,3.0,6.0,94,0.14,,RA,0.45,VWS V14.01,2013-05-05 11:00:00,
2013-05-05 07:05:00,46.2,44.8,30.00,NE,36,1.0,1.0,95,0.15,,RA,0.46,VWS V14.01,2013-05-05 11:05:00,
2013-05-05 07:10:00,46.1,44.8,30.00,NE,53,1.0,4.0,95,0.13,,RA,0.46,VWS V14.01,2013-05-05 11:10:00,
2013-05-05 07:15:00,46.1,44.8,30.00,NE,53,3.0,3.0,95,0.12,,RA,0.46,VWS V14.01,2013-05-05 11:15:00,
2013-05-05 07:20:00,46.1,44.5,30.00,NE,50,3.0,5.0,94,0.12,,RA,0.47,VWS V14.01,2013-05-05 11:20:00,
2013-05-05 07:25:00,46.1,44.5,30.00,NNE,17,2.0,3.0,94,0.11,,RA,0.48,VWS V14.01,2013-05-05 11:25:00,
2013-05-05 07:30:00,46.1,44.8,30.00,NNE,32,2.0,3.0,95,0.09,,RA,0.48,VWS V14.01,2013-05-05 11:30:00,
2013-05-05 07:35:00,46.1,44.8,30.00,ENE,58,3.0,4.0,95,0.08,,RA,0.48,VWS V14.01,2013-05-05 11:35:00,
2013-05-05 07:40:00,46.2,44.8,30.00,North,351,2.0,3.0,95,0.09,,-RA,0.49,VWS V14.01,2013-05-05 11:40:00,
2013-05-05 07:45:00,46.2,44.8,30.00,NE,50,7.0,7.0,95,0.09,,-RA,0.50,VWS V14.01,2013-05-05 11:45:00,
2013-05-05 07:50:00,46.3,45.0,30.00,NNE,12,1.0,2.0,95,0.09,,-RA,0.51,VWS V14.01,2013-05-05 11:50:00,
2013-05-05 07:55:00,46.3,45.0,30.00,NNW,347,1.0,3.0,95,0.08,,-RA,0.51,VWS V14.01,2013-05-05 11:55:00,
2013-05-05 08:00:00,46.3,45.0,30.00,North,1,2.0,4.0,95,0.06,, +RA,0.51,VWS V14.01,2013-05-05 12:00:00,
2013-05-05 08:05:00,46.5,45.2,30.00,ENE,71,3.0,5.0,95,0.05,, +RA,0.51,VWS V14.01,2013-05-05 12:05:00,
2013-05-05 08:10:00,46.6,45.2,30.00,NE,47,3.0,3.0,95,0.05,, +RA,0.51,VWS V14.01,2013-05-05 12:10:00,
2013-05-05 08:15:00,46.8,45.2,30.00,NE,53,3.0,9.0,94,0.05,, +RA,0.51,VWS V14.01,2013-05-05 12:15:00,
2013-05-05 08:20:00,47.0,45.4,30.00,North,1,2.0,2.0,94,0.04,,-RA,0.51,VWS V14.01,2013-05-05 12:20:00,
2013-05-05 08:25:00,47.0,45.4,30.00,NE,46,6.0,8.0,94,0.03,,-RA,0.51,VWS V14.01,2013-05-05 12:25:00,
2013-05-05 08:30:00,47.1,45.2,29.99,NE,52,2.0,14.0,93,0.03,,-RA,0.51,VWS V14.01,2013-05-05 12:30:00,
2013-05-05 08:35:00,47.3,45.4,29.99,NNE,25,4.0,7.0,93,0.03,,-RA,0.51,VWS V14.01,2013-05-05 12:35:00,
2013-05-05 08:40:00,47.3,45.4,29.99,NW,305,2.0,5.0,93,0.03,,OVC020,0.52,VWS V14.01,2013-05-05 12:40:00,
2013-05-05 08:45:00,47.4,45.5,30.00,ENE,70,2.0,8.0,93,0.02,,OVC020,0.52,VWS V14.01,2013-05-05 12:45:00,
2013-05-05 08:50:00,47.5,45.3,30.00,NNE,18,3.0,15.0,92,0.01,,OVC020,0.52,VWS V14.01,2013-05-05 12:50:00,
2013-05-05 08:55:00,47.6,45.4,30.00,NNE,32,3.0,14.0,92,0.02,,OVC020,0.53,VWS V14.01,2013-05-05 12:55:00,
2013-05-05 09:00:00,47.6,45.7,30.00,ENE,61,2.0,11.0,93,0.02,,-RA,0.53,VWS V14.01,2013-05-05 13:00:00,
2013-05-05 09:05:00,47.6,45.7,30.00,NE,36,4.0,5.0,93,0.02,,-RA,0.53,VWS V14.01,2013-05-05 13:05:00,
2013-05-05 09:10:00,47.6,45.7,30.00,NNE,30,2.0,6.0,93,0.03,,-RA,0.54,VWS V14.01,2013-05-05 13:10:00,
2013-05-05 09:15:00,47.6,45.7,30.00,ENE,58,1.0,6.0,93,0.04,,-RA,0.55,VWS V14.01,2013-05-05 13:15:00,
2013-05-05 09:20:00,47.5,45.6,30.00,NE,53,4.0,5.0,93,0.04,,RA,0.55,VWS V14.01,2013-05-05 13:20:00,
2013-05-05 09:25:00,47.5,45.9,30.00,NW,318,0.0,2.0,94,0.05,,RA,0.56,VWS V14.01,2013-05-05 13:25:00,
2013-05-05 09:30:00,47.5,45.9,30.00,NE,49,0.0,4.0,94,0.06,,RA,0.57,VWS V14.01,2013-05-05 13:30:00,
2013-05-05 09:35:00,47.6,46.0,30.00,NNE,30,2.0,3.0,94,0.06,,RA,0.57,VWS V14.01,2013-05-05 13:35:00,
2013-05-05 09:40:00,47.6,46.0,30.00,North,352,2.0,2.0,94,0.06,,RA,0.58,VWS V14.01,2013-05-05 13:40:00,
2013-05-05 09:45:00,47.6,46.0,30.00,NE,50,2.0,3.0,94,0.06,,RA,0.58,VWS V14.01,2013-05-05 13:45:00,
2013-05-05 09:50:00,47.5,45.9,30.01,NE,52,0.0,4.0,94,0.07,,RA,0.59,VWS V14.01,2013-05-05 13:50:00,
2013-05-05 09:55:00,47.5,46.1,30.01,NE,38,1.0,2.0,95,0.08,,RA,0.60,VWS V14.01,2013-05-05 13:55:00,
2013-05-05 10:00:00,47.6,46.0,30.01,North,352,0.0,3.0,94,0.08,,RA,0.61,VWS V14.01,2013-05-05 14:00:00,
2013-05-05 10:05:00,47.6,46.2,30.01,NE,56,0.0,0.0,95,0.09,,RA,0.62,VWS V14.01,2013-05-05 14:05:00,
2013-05-05 10:10:00,47.7,46.3,30.01,NE,50,2.0,3.0,95,0.09,,RA,0.63,VWS V14.01,2013-05-05 14:10:00,
2013-05-05 10:15:00,47.5,46.1,30.01,North,349,2.0,3.0,95,0.10,,RA,0.64,VWS V14.01,2013-05-05 14:15:00,
2013-05-05 10:20:00,47.5,46.1,30.01,NE,39,1.0,3.0,95,0.09,,RA,0.64,VWS V14.01,2013-05-05 14:20:00,
2013-05-05 10:25:00,47.4,46.3,30.01,NNE,30,3.0,3.0,96,0.11,,RA,0.66,VWS V14.01,2013-05-05 14:25:00,
2013-05-05 10:30:00,47.4,46.0,30.01,ENE,62,3.0,5.0,95,0.11,,RA,0.68,VWS V14.01,2013-05-05 14:30:00,
2013-05-05 10:35:00,47.4,46.3,30.01,NNE,18,1.0,4.0,96,0.13,,RA,0.70,VWS V14.01,2013-05-05 14:35:00,
2013-05-05 10:40:00,47.4,46.3,30.02,NE,53,4.0,5.0,96,0.14,, +RA,0.72,VWS V14.01,2013-05-05 14:40:00,
2013-05-05 10:45:00,47.3,46.2,30.01,East,86,6.0,9.0,96,0.15,, +RA,0.73,VWS V14.01,2013-05-05 14:45:00,
2013-05-05 10:49:00,47.3,46.2,30.00,North,354,6.0,9.0,96,0.15,, +RA,0.74,VWS V14.01,2013-05-05 14:49:00,
2013-05-05 10:54:00,47.2,46.1,30.00,NNE,25,4.0,7.0,96,0.16,, +RA,0.76,VWS V14.01,2013-05-05 14:54:00,
2013-05-05 10:59:00,47.2,46.1,30.00,NE,53,8.0,8.0,96,0.15,, +RA,0.76,VWS V14.01,2013-05-05 14:59:00,
2013-05-05 11:04:00,47.2,46.1,30.00,ENE,62,12.0,13.0,96,0.15,, +RA,0.77,VWS V14.01,2013-05-05 15:04:00,
2013-05-05 11:09:00,47.2,46.1,30.00,NE,55,4.0,10.0,96,0.16,, +RA,0.79,VWS V14.01,2013-05-05 15:09:00,
2013-05-05 11:14:00,47.1,46.0,30.00,ENE,61,5.0,7.0,96,0.17,, +RA,0.81,VWS V14.01,2013-05-05 15:14:00,
2013-05-05 11:19:00,47.0,45.9,30.00,NE,50,5.0,10.0,96,0.19,, +RA,0.83,VWS V14.01,2013-05-05 15:19:00,
2013-05-05 11:24:00,47.0,46.2,30.00,NNW,328,3.0,9.0,97,0.20,, +RA,0.85,VWS V14.01,2013-05-05 15:24:00,
2013-05-05 11:29:00,47.0,46.2,30.00,NNE,25,8.0,9.0,97,0.20,, +RA,0.87,VWS V14.01,2013-05-05 15:29:00,
2013-05-05 11:34:00,47.0,46.2,29.99,NE,39,4.0,12.0,97,0.19,, +RA,0.88,VWS V14.01,2013-05-05 15:34:00,
2013-05-05 11:39:00,47.1,46.3,29.99,ENE,73,6.0,8.0,97,0.18,, +RA,0.89,VWS V14.01,2013-05-05 15:39:00,
2013-05-05 11:44:00,47.0,46.2,29.99,NNE,12,4.0,8.0,97,0.17,, +RA,0.90,VWS V14.01,2013-05-05 15:44:00,
2013-05-05 11:49:00,47.0,46.2,29.99,NNE,12,4.0,9.0,97,0.17,, +RA,0.91,VWS V14.01,2013-05-05 15:49:00,
2013-05-05 11:54:00,47.1,46.3,30.00,NNE,31,2.0,6.0,97,0.16,, +RA,0.91,VWS V14.01,2013-05-05 15:54:00,
2013-05-05 11:59:00,47.1,46.3,30.00,NE,46,4.0,7.0,97,0.16,,RA,0.92,VWS V14.01,2013-05-05 15:59:00,
2013-05-05 12:04:00,47.1,46.3,30.00,NE,46,8.0,10.0,97,0.16,,RA,0.93,VWS V14.01,2013-05-05 16:04:00,
2013-05-05 12:09:00,47.1,46.3,30.00,NNE,22,3.0,5.0,97,0.15,,RA,0.94,VWS V14.01,2013-05-05 16:09:00,
2013-05-05 12:14:00,47.2,46.4,29.99,North,9,1.0,4.0,97,0.14,,RA,0.95,VWS V14.01,2013-05-05 16:14:00,
2013-05-05 12:19:00,47.2,46.4,30.00,North,6,3.0,4.0,97,0.13,,RA,0.96,VWS V14.01,2013-05-05 16:19:00,
2013-05-05 12:24:00,47.2,46.4,29.99,NE,53,4.0,8.0,97,0.11,,RA,0.96,VWS V14.01,2013-05-05 16:24:00,
2013-05-05 12:29:00,47.2,46.4,29.99,NNW,332,2.0,5.0,97,0.10,,RA,0.97,VWS V14.01,2013-05-05 16:29:00,
2013-05-05 12:34:00,47.3,46.5,29.99,NE,53,5.0,8.0,97,0.10,,RA,0.98,VWS V14.01,2013-05-05 16:34:00,
2013-05-05 12:39:00,47.3,46.5,29.99,SSE,160,1.0,4.0,97,0.10,, +RA,0.99,VWS V14.01,2013-05-05 16:39:00,
2013-05-05 12:44:00,47.4,46.6,30.00,NE,49,0.0,2.0,97,0.09,, +RA,0.99,VWS V14.01,2013-05-05 16:44:00,
2013-05-05 12:49:00,47.5,46.7,30.01,NE,43,1.0,4.0,97,0.09,, +RA,1.00,VWS V14.01,2013-05-05 16:49:00,
2013-05-05 12:54:00,47.5,46.7,30.02,NE,36,0.0,2.0,97,0.10,, +RA,1.01,VWS V14.01,2013-05-05 16:54:00,
2013-05-05 12:59:00,47.6,46.8,30.02,NE,36,0.0,0.0,97,0.12,, +RA,1.04,VWS V14.01,2013-05-05 16:59:00,
2013-05-05 13:04:00,47.6,46.8,30.02,ENE,67,2.0,3.0,97,0.14,, +RA,1.07,VWS V14.01,2013-05-05 17:04:00,
2013-05-05 13:09:00,47.6,46.8,30.01,NE,43,2.0,5.0,97,0.15,, +RA,1.09,VWS V14.01,2013-05-05 17:09:00,
2013-05-05 13:14:00,47.6,46.8,30.01,North,353,1.0,5.0,97,0.15,, +RA,1.10,VWS V14.01,2013-05-05 17:14:00,
2013-05-05 13:19:00,47.6,46.8,30.01,ENE,71,3.0,4.0,97,0.17,,,1.12,VWS V14.01,2013-05-05 17:19:00,
2013-05-05 13:24:00,47.6,46.8,30.01,NE,50,2.0,4.0,97,0.17,,,1.13,VWS V14.01,2013-05-05 17:24:00,
2013-05-05 13:29:00,47.6,46.8,30.01,NE,52,5.0,6.0,97,0.17,,,1.14,VWS V14.01,2013-05-05 17:29:00,
2013-05-05 13:34:00,47.5,46.7,30.01,North,4,1.0,2.0,97,0.19,,,1.17,VWS V14.01,2013-05-05 17:34:00,
2013-05-05 13:39:00,47.5,46.7,30.01,NE,36,2.0,6.0,97,0.21,, +RA,1.20,VWS V14.01,2013-05-05 17:39:00,
2013-05-05 13:44:00,47.5,46.7,30.01,East,101,1.0,8.0,97,0.25,, +RA,1.24,VWS V14.01,2013-05-05 17:44:00,
2013-05-05 13:49:00,47.4,46.6,30.01,ESE,113,1.0,4.0,97,0.26,, +RA,1.26,VWS V14.01,2013-05-05 17:49:00,
2013-05-05 13:54:00,47.4,46.6,30.01,NE,38,4.0,6.0,97,0.28,, +RA,1.29,VWS V14.01,2013-05-05 17:54:00,
2013-05-05 13:59:00,47.4,46.6,30.00,NNE,32,2.0,3.0,97,0.27,,OVC012,1.31,VWS V14.01,2013-05-05 17:59:00,
2013-05-05 14:04:00,47.5,46.7,30.00,North,352,3.0,6.0,97,0.27,,OVC012,1.34,VWS V14.01,2013-05-05 18:04:00,
2013-05-05 14:09:00,47.5,46.7,30.00,ENE,76,4.0,5.0,97,0.26,,OVC012,1.35,VWS V14.01,2013-05-05 18:09:00,
2013-05-05 14:14:00,47.5,46.7,30.00,ESE,118,0.0,6.0,97,0.26,,OVC012,1.36,VWS V14.01,2013-05-05 18:14:00,
2013-05-05 14:19:00,47.4,46.6,30.00,NNE,14,5.0,6.0,97,0.26,, +RA,1.38,VWS V14.01,2013-05-05 18:19:00,
2013-05-05 14:24:00,47.4,46.6,30.00,NW,316,2.0,3.0,97,0.26,, +RA,1.39,VWS V14.01,2013-05-05 18:24:00,
2013-05-05 14:29:00,47.4,46.6,30.00,NNE,33,3.0,3.0,97,0.27,, +RA,1.41,VWS V14.01,2013-05-05 18:29:00,
2013-05-05 14:34:00,47.5,46.7,30.01,NW,319,2.0,2.0,97,0.26,, +RA,1.43,VWS V14.01,2013-05-05 18:34:00,
2013-05-05 14:39:00,47.4,46.6,30.00,NNW,344,3.0,4.0,97,0.25,, +RA,1.45,VWS V14.01,2013-05-05 18:39:00,
2013-05-05 14:44:00,47.4,46.6,29.99,NE,50,9.0,9.0,97,0.23,, +RA,1.47,VWS V14.01,2013-05-05 18:44:00,
2013-05-05 14:49:00,47.4,46.6,29.98,NNW,348,8.0,12.0,97,0.23,, +RA,1.49,VWS V14.01,2013-05-05 18:49:00,
2013-05-05 14:54:00,47.3,46.5,29.98,NNE,27,2.0,9.0,97,0.23,, +RA,1.52,VWS V14.01,2013-05-05 18:54:00,
2013-05-05 14:59:00,47.3,46.8,29.97,NE,50,4.0,4.0,98,0.23,, +RA,1.54,VWS V14.01,2013-05-05 18:59:00,
2013-05-05 15:04:00,47.3,46.5,29.97,NNE,27,5.0,5.0,97,0.23,, +RA,1.56,VWS V14.01,2013-05-05 19:04:00,
2013-05-05 15:09:00,47.3,46.5,29.97,NE,41,3.0,7.0,97,0.22,, +RA,1.57,VWS V14.01,2013-05-05 19:09:00,
2013-05-05 15:14:00,47.3,46.8,29.96,East,84,1.0,8.0,98,0.24,, +RA,1.60,VWS V14.01,2013-05-05 19:14:00,
2013-05-05 15:19:00,47.3,46.5,29.96,NE,43,1.0,9.0,97,0.24,,RA,1.62,VWS V14.01,2013-05-05 19:19:00,
2013-05-05 15:24:00,47.3,46.8,29.97,NNE,30,12.0,12.0,98,0.24,,RA,1.63,VWS V14.01,2013-05-05 19:24:00,
2013-05-05 15:29:00,47.4,46.9,29.96,NNE,17,1.0,3.0,98,0.24,,RA,1.65,VWS V14.01,2013-05-05 19:29:00,
2013-05-05 15:34:00,47.5,46.7,29.96,NE,38,5.0,8.0,97,0.23,,RA,1.66,VWS V14.01,2013-05-05 19:34:00,
2013-05-05 15:39:00,47.6,46.8,29.94,NE,52,4.0,9.0,97,0.25,, +RA,1.70,VWS V14.01,2013-05-05 19:39:00,
2013-05-05 15:44:00,47.6,46.8,29.94,ESE,110,2.0,8.0,97,0.26,, +RA,1.73,VWS V14.01,2013-05-05 19:44:00,
2013-05-05 15:49:00,47.7,46.9,29.95,ENE,65,6.0,13.0,97,0.25,, +RA,1.74,VWS V14.01,2013-05-05 19:49:00,
2013-05-05 15:54:00,47.8,47.0,29.95,NNE,12,3.0,10.0,97,0.23,, +RA,1.75,VWS V14.01,2013-05-05 19:54:00,
2013-05-05 15:59:00,47.8,47.0,29.95,NNE,13,5.0,6.0,97,0.23,,RA,1.77,VWS V14.01,2013-05-05 19:59:00,
2013-05-05 16:04:00,47.9,47.1,29.94,East,92,5.0,10.0,97,0.22,,RA,1.78,VWS V14.01,2013-05-05 20:04:00,
2013-05-05 16:09:00,47.9,47.1,29.93,NNW,330,1.0,5.0,97,0.23,,RA,1.80,VWS V14.01,2013-05-05 20:09:00,
2013-05-05 16:14:00,48.0,47.2,29.92,East,95,3.0,9.0,97,0.21,,RA,1.81,VWS V14.01,2013-05-05 20:14:00,
2013-05-05 16:19:00,48.1,47.3,29.92,WNW,301,3.0,7.0,97,0.20,, +RA,1.82,VWS V14.01,2013-05-05 20:19:00,
2013-05-05 16:24:00,48.2,47.4,29.92,NNW,333,5.0,12.0,97,0.19,, +RA,1.82,VWS V14.01,2013-05-05 20:24:00,
2013-05-05 16:29:00,48.4,47.6,29.93,SE,138,2.0,3.0,97,0.17,, +RA,1.82,VWS V14.01,2013-05-05 20:29:00,
2013-05-05 16:34:00,48.5,47.7,29.94,NNE,12,5.0,9.0,97,0.16,, +RA,1.82,VWS V14.01,2013-05-05 20:34:00,
2013-05-05 16:39:00,48.5,47.7,29.94,SW,229,1.0,1.0,97,0.13,,-RA,1.82,VWS V14.01,2013-05-05 20:39:00,
2013-05-05 16:44:00,48.6,47.8,29.94,NE,44,1.0,5.0,97,0.11,,-RA,1.83,VWS V14.01,2013-05-05 20:44:00,
2013-05-05 16:49:00,48.7,47.9,29.94,NE,46,2.0,6.0,97,0.10,,-RA,1.84,VWS V14.01,2013-05-05 20:49:00,
2013-05-05 16:54:00,48.8,48.0,29.94,NNE,25,2.0,3.0,97,0.11,,-RA,1.85,VWS V14.01,2013-05-05 20:54:00,
2013-05-05 16:59:00,48.9,48.1,29.93,NE,46,2.0,3.0,97,0.09,,RA,1.86,VWS V14.01,2013-05-05 20:59:00,
2013-05-05 17:04:00,49.0,48.2,29.93,ENE,58,4.0,6.0,97,0.10,,RA,1.88,VWS V14.01,2013-05-05 21:04:00,
2013-05-05 17:09:00,49.1,48.3,29.93,NE,44,2.0,9.0,97,0.11,,RA,1.91,VWS V14.01,2013-05-05 21:09:00,
2013-05-05 17:14:00,49.1,48.3,29.93,NNE,30,3.0,6.0,97,0.12,,RA,1.93,VWS V14.01,2013-05-05 21:14:00,
2013-05-05 17:19:00,49.2,48.4,29.93,North,8,3.0,6.0,97,0.13,, +RA,1.95,VWS V14.01,2013-05-05 21:19:00,
2013-05-05 17:24:00,49.3,48.5,29.92,ESE,110,3.0,5.0,97,0.14,, +RA,1.96,VWS V14.01,2013-05-05 21:24:00,
2013-05-05 17:29:00,49.4,48.6,29.92,NNE,33,6.0,7.0,97,0.15,, +RA,1.97,VWS V14.01,2013-05-05 21:29:00,
2013-05-05 17:34:00,49.5,48.7,29.92,NE,36,2.0,8.0,97,0.16,, +RA,1.98,VWS V14.01,2013-05-05 21:34:00,
2013-05-05 17:39:00,49.5,48.7,29.92,ENE,58,4.0,9.0,97,0.18,,RA,2.00,VWS V14.01,2013-05-05 21:39:00,
2013-05-05 17:44:00,49.6,48.8,29.92,NE,52,2.0,2.0,97,0.19,,RA,2.02,VWS V14.01,2013-05-05 21:44:00,
2013-05-05 17:49:00,49.7,48.9,29.92,NE,36,2.0,4.0,97,0.21,,RA,2.05,VWS V14.01,2013-05-05 21:49:00,
2013-05-05 17:54:00,49.7,49.2,29.92,NE,53,5.0,7.0,98,0.22,,RA,2.07,VWS V14.01,2013-05-05 21:54:00,
2013-05-05 17:59:00,49.8,49.3,29.92,NNE,32,2.0,4.0,98,0.22,, +RA,2.08,VWS V14.01,2013-05-05 21:59:00,
2013-05-05 18:04:00,49.8,49.3,29.92,ENE,62,3.0,8.0,98,0.21,, +RA,2.09,VWS V14.01,2013-05-05 22:04:00,
2013-05-05 18:09:00,49.9,49.4,29.92,NE,38,5.0,5.0,98,0.20,, +RA,2.10,VWS V14.01,2013-05-05 22:09:00,
2013-05-05 18:14:00,50.0,49.5,29.92,NE,39,4.0,7.0,98,0.17,, +RA,2.10,VWS V14.01,2013-05-05 22:14:00,
2013-05-05 18:19:00,50.1,49.6,29.92,NE,45,10.0,10.0,98,0.16,,RA,2.11,VWS V14.01,2013-05-05 22:19:00,
2013-05-05 18:24:00,50.2,49.4,29.91,SE,127,2.0,7.0,97,0.16,,RA,2.12,VWS V14.01,2013-05-05 22:24:00,
2013-05-05 18:29:00,50.2,49.7,29.91,East,101,2.0,7.0,98,0.16,,RA,2.13,VWS V14.01,2013-05-05 22:29:00,
2013-05-05 18:34:00,50.3,49.8,29.91,NE,52,6.0,7.0,98,0.16,,RA,2.14,VWS V14.01,2013-05-05 22:34:00,
2013-05-05 18:39:00,50.4,49.6,29.91,NNW,333,4.0,9.0,97,0.15,, +RA,2.15,VWS V14.01,2013-05-05 22:39:00,
2013-05-05 18:44:00,50.5,49.7,29.92,NE,38,4.0,9.0,97,0.14,, +RA,2.16,VWS V14.01,2013-05-05 22:44:00,
2013-05-05 18:49:00,50.6,49.8,29.91,NNE,30,2.0,10.0,97,0.11,, +RA,2.16,VWS V14.01,2013-05-05 22:49:00,
2013-05-05 18:54:00,50.6,49.8,29.91,ESE,108,2.0,5.0,97,0.10,, +RA,2.17,VWS V14.01,2013-05-05 22:54:00,
2013-05-05 18:59:00,50.7,49.9,29.91,NNE,30,4.0,9.0,97,0.10,,RA,2.18,VWS V14.01,2013-05-05 22:59:00,
2013-05-05 19:04:00,50.8,50.0,29.91,NE,50,6.0,12.0,97,0.10,,RA,2.19,VWS V14.01,2013-05-05 23:04:00,
2013-05-05 19:09:00,50.8,50.0,29.91,NNW,336,2.0,4.0,97,0.10,,RA,2.20,VWS V14.01,2013-05-05 23:09:00,
2013-05-05 19:14:00,50.8,50.0,29.91,East,87,4.0,7.0,97,0.12,,RA,2.22,VWS V14.01,2013-05-05 23:14:00,
2013-05-05 19:19:00,50.8,50.3,29.91,NE,52,9.0,9.0,98,0.12,,RA,2.23,VWS V14.01,2013-05-05 23:19:00,
2013-05-05 19:24:00,50.9,50.4,29.91,ENE,65,2.0,5.0,98,0.13,,RA,2.25,VWS V14.01,2013-05-05 23:24:00,
2013-05-05 19:29:00,50.9,50.4,29.91,ENE,58,6.0,6.0,98,0.14,,RA,2.27,VWS V14.01,2013-05-05 23:29:00,
2013-05-05 19:34:00,50.9,50.4,29.90,ENE,58,5.0,10.0,98,0.15,,RA,2.29,VWS V14.01,2013-05-05 23:34:00,
2013-05-05 19:39:00,50.9,50.4,29.91,NNE,30,8.0,9.0,98,0.15,, +RA,2.30,VWS V14.01,2013-05-05 23:39:00,
2013-05-05 19:44:00,51.0,50.5,29.91,NNE,32,6.0,10.0,98,0.15,, +RA,2.31,VWS V14.01,2013-05-05 23:44:00,
2013-05-05 19:49:00,51.1,50.6,29.91,NE,49,3.0,6.0,98,0.15,, +RA,2.31,VWS V14.01,2013-05-05 23:49:00,
2013-05-05 19:54:00,51.1,50.6,29.91,East,96,3.0,7.0,98,0.15,, +RA,2.32,VWS V14.01,2013-05-05 23:54:00,
2013-05-05 19:59:00,51.2,50.7,29.90,ENE,58,4.0,5.0,98,0.15,,RA,2.33,VWS V14.01,2013-05-05 23:59:00,
2013-05-05 20:04:00,51.2,50.7,29.89,ENE,61,4.0,11.0,98,0.14,,RA,2.33,VWS V14.01,2013-05-06 00:04:00,
2013-05-05 20:09:00,51.3,50.8,29.90,ENE,73,6.0,8.0,98,0.14,,RA,2.34,VWS V14.01,2013-05-06 00:09:00,
2013-05-05 20:14:00,51.4,50.9,29.90,ESE,110,4.0,6.0,98,0.15,,RA,2.37,VWS V14.01,2013-05-06 00:14:00,
2013-05-05 20:19:00,51.6,51.1,29.90,East,81,6.0,13.0,98,0.15,,RA,2.38,VWS V14.01,2013-05-06 00:19:00,
2013-05-05 20:24:00,51.7,51.2,29.90,ENE,70,3.0,10.0,98,0.16,,RA,2.41,VWS V14.01,2013-05-06 00:24:00,
2013-05-05 20:29:00,51.7,51.2,29.90,NNE,27,4.0,5.0,98,0.16,,RA,2.43,VWS V14.01,2013-05-06 00:29:00,
2013-05-05 20:34:00,51.8,51.3,29.90,NNW,345,4.0,8.0,98,0.15,,RA,2.44,VWS V14.01,2013-05-06 00:34:00,
2013-05-05 20:39:00,51.9,51.4,29.90,North,5,4.0,7.0,98,0.15,,RA,2.45,VWS V14.01,2013-05-06 00:39:00,
2013-05-05 20:44:00,52.0,51.5,29.90,SE,139,4.0,5.0,98,0.14,,RA,2.45,VWS V14.01,2013-05-06 00:44:00,
2013-05-05 20:49:00,52.2,51.7,29.90,East,96,1.0,9.0,98,0.15,,RA,2.46,VWS V14.01,2013-05-06 00:49:00,
2013-05-05 20:54:00,52.2,51.7,29.90,ESE,120,3.0,3.0,98,0.14,,RA,2.46,VWS V14.01,2013-05-06 00:54:00,
2013-05-05 20:59:00,52.4,51.8,29.90,North,1,5.0,13.0,98,0.14,,RA,2.47,VWS V14.01,2013-05-06 00:59:00,
2013-05-05 21:04:00,52.5,52.0,29.89,NE,43,10.0,10.0,98,0.14,,RA,2.47,VWS V14.01,2013-05-06 01:04:00,
2013-05-05 21:09:00,52.6,52.0,29.90,SE,128,4.0,6.0,98,0.13,,RA,2.47,VWS V14.01,2013-05-06 01:09:00,
2013-05-05 21:14:00,52.7,52.2,29.90,NE,50,8.0,9.0,98,0.13,,RA,2.49,VWS V14.01,2013-05-06 01:14:00,
2013-05-05 21:19:00,52.8,52.2,29.90,NE,50,11.0,11.0,98,0.12,,-RA,2.50,VWS V14.01,2013-05-06 01:19:00,
2013-05-05 21:24:00,52.9,52.3,29.90,East,85,9.0,9.0,98,0.10,,-RA,2.51,VWS V14.01,2013-05-06 01:24:00,
2013-05-05 21:29:00,53.0,52.5,29.89,NE,36,3.0,13.0,98,0.08,,-RA,2.51,VWS V14.01,2013-05-06 01:29:00,
2013-05-05 21:34:00,53.1,52.5,29.89,North,353,4.0,11.0,98,0.07,,-RA,2.51,VWS V14.01,2013-05-06 01:34:00,
2013-05-05 21:39:00,53.2,52.7,29.89,East,89,4.0,13.0,98,0.07,,-RA,2.52,VWS V14.01,2013-05-06 01:39:00,
2013-05-05 21:44:00,53.3,52.8,29.89,North,349,3.0,5.0,98,0.07,,-RA,2.52,VWS V14.01,2013-05-06 01:44:00,
2013-05-05 21:49:00,53.4,52.8,29.89,East,91,2.0,11.0,98,0.06,,-RA,2.52,VWS V14.01,2013-05-06 01:49:00,
2013-05-05 21:54:00,53.6,53.0,29.89,NE,50,4.0,8.0,98,0.06,,-RA,2.52,VWS V14.01,2013-05-06 01:54:00,
2013-05-05 21:59:00,53.7,53.2,29.89,NNE,30,14.0,14.0,98,0.05,,-RA,2.52,VWS V14.01,2013-05-06 01:59:00,
2013-05-05 22:04:00,53.8,53.0,29.89,NNE,32,17.0,17.0,97,0.05,,-RA,2.52,VWS V14.01,2013-05-06 02:04:00,
2013-05-05 22:09:00,54.0,53.2,29.88,ESE,103,6.0,15.0,97,0.05,,-RA,2.52,VWS V14.01,2013-05-06 02:09:00,
2013-05-05 22:14:00,54.1,53.3,29.88,NE,56,10.0,16.0,97,0.03,,-RA,2.52,VWS V14.01,2013-05-06 02:14:00,
2013-05-05 22:19:00,54.2,53.4,29.88,East,86,3.0,13.0,97,0.02,,-RA,2.52,VWS V14.01,2013-05-06 02:19:00,
2013-05-05 22:24:00,54.2,53.4,29.88,NNE,19,5.0,10.0,97,0.01,,-RA,2.52,VWS V14.01,2013-05-06 02:24:00,
2013-05-05 22:29:00,54.4,53.6,29.88,NNE,33,12.0,13.0,97,0.01,,-RA,2.52,VWS V14.01,2013-05-06 02:29:00,
2013-05-05 22:34:00,54.4,53.6,29.88,NNE,27,5.0,15.0,97,0.01,,-RA,2.52,VWS V14.01,2013-05-06 02:34:00,
2013-05-05 22:39:00,54.5,53.7,29.89,North,1,7.0,12.0,97,0.00,,-RA,2.52,VWS V14.01,2013-05-06 02:39:00,
2013-05-05 22:44:00,54.6,54.0,29.89,SSE,158,3.0,14.0,98,0.00,,-RA,2.52,VWS V14.01,2013-05-06 02:44:00,
2013-05-05 22:49:00,54.7,53.9,29.89,ENE,58,6.0,11.0,97,0.01,,-RA,2.53,VWS V14.01,2013-05-06 02:49:00,
2013-05-05 22:54:00,54.7,53.9,29.88,North,1,7.0,12.0,97,0.01,,-RA,2.53,VWS V14.01,2013-05-06 02:54:00,
2013-05-05 22:59:00,54.8,54.0,29.88,NE,47,7.0,11.0,97,0.01,,-RA,2.53,VWS V14.01,2013-05-06 02:59:00,
2013-05-05 23:04:00,54.9,54.1,29.88,ENE,76,7.0,15.0,97,0.01,,-RA,2.53,VWS V14.01,2013-05-06 03:04:00,
2013-05-05 23:09:00,55.0,54.2,29.88,ESE,118,4.0,12.0,97,0.01,,-RA,2.53,VWS V14.01,2013-05-06 03:09:00,
2013-05-05 23:14:00,55.0,54.2,29.88,NE,50,5.0,6.0,97,0.01,,-RA,2.53,VWS V14.01,2013-05-06 03:14:00,
2013-05-05 23:19:00,55.1,54.3,29.88,NNE,19,10.0,16.0,97,0.01,,-RA,2.53,VWS V14.01,2013-05-06 03:19:00,
2013-05-05 23:24:00,55.2,54.4,29.88,ESE,120,6.0,11.0,97,0.01,,-RA,2.53,VWS V14.01,2013-05-06 03:24:00,
2013-05-05 23:29:00,55.1,54.3,29.88,NW,310,1.0,7.0,97,0.03,,-RA,2.55,VWS V14.01,2013-05-06 03:29:00,
2013-05-05 23:34:00,55.2,54.4,29.88,NE,40,12.0,12.0,97,0.05,,-RA,2.57,VWS V14.01,2013-05-06 03:34:00,
2013-05-05 23:39:00,55.3,54.5,29.87,ENE,60,16.0,16.0,97,0.08,,-RA,2.60,VWS V14.01,2013-05-06 03:39:00,
2013-05-05 23:44:00,55.2,54.4,29.86,NE,43,7.0,16.0,97,0.09,,-RA,2.61,VWS V14.01,2013-05-06 03:44:00,
2013-05-05 23:49:00,55.2,54.7,29.87,NNE,30,6.0,6.0,98,0.09,,-RA,2.62,VWS V14.01,2013-05-06 03:49:00,
2013-05-05 23:54:00,55.2,54.7,29.87,NNE,23,8.0,15.0,98,0.12,,-RA,2.65,VWS V14.01,2013-05-06 03:54:00,
2013-05-05 23:59:00,55.2,54.7,29.87,ENE,77,18.0,20.0,98,0.17,,-RA,2.70,VWS V14.01,2013-05-06 03:59:00,